Time;durP1;ratioP1;P1;durP2;ratioP2;P2;SDS_P1;SDS_P2;PMS_P1;PMS_P2;Temp;Humidity;BMP_temperature;BMP_pressure;BME280_temperature;BME280_humidity;BME280_pressure;Samples;Min_cycle;Max_cycle;Signal;HPM_P1;HPM_P2
2022/07/08 00:00:12;;;;;;;9.67;1.90;;;;;;;;;;509895;29;1332;-83
2022/07/08 00:00:28;;;;;;;7.30;1.80;;;;;;;;;;510044;29;1105;-83
2022/07/08 00:00:44;;;;;;;7.17;1.90;;;;;;;;;;509786;29;1254;-84
2022/07/08 00:00:59;;;;;;;7.82;1.95;;;;;;;;;;507973;29;1177;-84
2022/07/08 00:01:14;;;;;;;5.78;1.65;;;;;;;;;;505436;29;1178;-84
2022/07/08 00:01:30;;;;;;;6.03;1.60;;;;;;;;;;505883;29;1504;-84
2022/07/08 00:01:45;;;;;;;7.70;1.87;;;;;;;;;;506108;29;1357;-84
2022/07/08 00:02:01;;;;;;;8.68;1.85;;;;;;;;;;508177;29;1280;-84
2022/07/08 00:02:16;;;;;;;8.85;1.70;;;;;;;;;;506172;29;1326;-84
2022/07/08 00:02:32;;;;;;;7.50;1.80;;;;;;;;;;508202;29;1206;-84
2022/07/08 00:02:47;;;;;;;7.10;1.83;;;;;;;;;;508289;29;856;-84
2022/07/08 00:03:03;;;;;;;7.25;1.70;;;;;;;;;;509941;29;1229;-84
2022/07/08 00:03:18;;;;;;;6.82;1.58;;;;;;;;;;509622;29;1329;-84
2022/07/08 00:03:34;;;;;;;6.70;1.70;;;;;;;;;;508337;29;1347;-84
2022/07/08 00:03:49;;;;;;;6.80;2.00;;;;;;;;;;508165;29;875;-84
2022/07/08 00:04:05;;;;;;;6.87;1.90;;;;;;;;;;506357;29;1074;-84
2022/07/08 00:04:22;;;;;;;5.85;1.70;;;;;;;;;;506484;29;1290;-85
2022/07/08 00:04:37;;;;;;;6.18;1.80;;;;;;;;;;508257;29;1468;-84
2022/07/08 00:04:52;;;;;;;6.63;1.80;;;;;;;;;;505796;29;1193;-84
2022/07/08 00:05:08;;;;;;;7.40;1.80;;;;;;;;;;506165;29;1228;-84
2022/07/08 00:05:24;;;;;;;7.05;1.92;;;;;;;;;;506112;29;904;-84
2022/07/08 00:05:39;;;;;;;7.77;1.90;;;;;;;;;;506076;29;941;-84
2022/07/08 00:05:55;;;;;;;7.20;1.65;;;;;;;;;;506205;29;1205;-84
2022/07/08 00:06:10;;;;;;;5.53;1.60;;;;;;;;;;506586;29;1452;-84
2022/07/08 00:06:26;;;;;;;6.20;1.63;;;;;;;;;;510198;29;1308;-84
2022/07/08 00:06:41;;;;;;;7.63;1.60;;;;;;;;;;508582;29;1233;-84
2022/07/08 00:06:56;;;;;;;6.85;1.65;;;;;;;;;;510014;29;1187;-84
2022/07/08 00:07:12;;;;;;;7.17;1.80;;;;;;;;;;508285;29;877;-84
2022/07/08 00:07:27;;;;;;;8.07;1.80;;;;;;;;;;510294;29;1343;-84
2022/07/08 00:07:43;;;;;;;7.47;1.70;;;;;;;;;;510327;29;883;-84
2022/07/08 00:07:58;;;;;;;8.60;1.70;;;;;;;;;;510181;29;1430;-84
2022/07/08 00:08:14;;;;;;;8.25;1.80;;;;;;;;;;507976;29;1339;-84
2022/07/08 00:08:30;;;;;;;6.87;1.80;;;;;;;;;;506715;29;887;-84
2022/07/08 00:08:46;;;;;;;7.78;1.70;;;;;;;;;;508330;29;951;-84
2022/07/08 00:09:02;;;;;;;7.88;1.77;;;;;;;;;;508262;29;1310;-84
2022/07/08 00:09:18;;;;;;;6.97;1.80;;;;;;;;;;509968;29;1416;-84
2022/07/08 00:09:33;;;;;;;6.83;1.80;;;;;;;;;;510135;29;1361;-84
2022/07/08 00:09:49;;;;;;;6.70;1.88;;;;;;;;;;510215;29;1194;-84
2022/07/08 00:10:05;;;;;;;7.43;1.90;;;;;;;;;;510097;29;1272;-84
2022/07/08 00:10:21;;;;;;;7.82;1.70;;;;;;;;;;510188;29;1460;-84
2022/07/08 00:10:36;;;;;;;7.13;1.70;;;;;;;;;;510191;29;853;-84
2022/07/08 00:10:52;;;;;;;8.63;2.00;;;;;;;;;;512168;29;1171;-84
2022/07/08 00:11:07;;;;;;;9.80;2.00;;;;;;;;;;510228;29;1169;-84
2022/07/08 00:11:23;;;;;;;8.07;1.70;;;;;;;;;;507945;29;1271;-84
2022/07/08 00:11:40;;;;;;;6.47;1.77;;;;;;;;;;506124;29;1352;-84
2022/07/08 00:11:56;;;;;;;7.60;1.85;;;;;;;;;;506062;29;1265;-84
2022/07/08 00:12:11;;;;;;;6.93;1.67;;;;;;;;;;507911;29;1163;-84
2022/07/08 00:12:27;;;;;;;6.45;1.65;;;;;;;;;;508399;29;968;-84
2022/07/08 00:12:42;;;;;;;7.03;1.80;;;;;;;;;;508158;29;1446;-83
2022/07/08 00:12:58;;;;;;;7.63;1.70;;;;;;;;;;510159;29;1181;-84
2022/07/08 00:13:13;;;;;;;7.33;1.67;;;;;;;;;;512153;29;1252;-84
2022/07/08 00:13:29;;;;;;;5.88;1.50;;;;;;;;;;510227;29;1211;-84
2022/07/08 00:13:44;;;;;;;7.17;1.60;;;;;;;;;;509906;29;817;-84
2022/07/08 00:13:59;;;;;;;9.45;2.00;;;;;;;;;;508335;29;864;-84
2022/07/08 00:14:15;;;;;;;8.50;2.03;;;;;;;;;;508227;29;1129;-84
2022/07/08 00:14:30;;;;;;;6.90;1.87;;;;;;;;;;509737;29;1333;-84
2022/07/08 00:14:46;;;;;;;6.82;1.80;;;;;;;;;;503963;29;1974;-84
2022/07/08 00:15:02;;;;;;;7.27;1.70;;;;;;;;;;505052;29;1186;-84
2022/07/08 00:15:17;;;;;;;8.10;1.83;;;;;;;;;;508473;29;881;-84
2022/07/08 00:15:33;;;;;;;6.88;1.70;;;;;;;;;;507967;29;1177;-84
2022/07/08 00:15:48;;;;;;;5.83;1.53;;;;;;;;;;509943;29;1356;-84
2022/07/08 00:16:04;;;;;;;7.70;1.67;;;;;;;;;;510077;29;954;-84
2022/07/08 00:16:19;;;;;;;9.27;1.90;;;;;;;;;;509575;29;1171;-84
2022/07/08 00:16:40;;;;;;;8.03;1.80;;;;;;;;;;508041;29;1186;-84
2022/07/08 00:16:55;;;;;;;6.15;1.60;;;;;;;;;;508032;29;1292;-84
2022/07/08 00:17:11;;;;;;;6.47;1.70;;;;;;;;;;506175;29;1347;-84
2022/07/08 00:17:27;;;;;;;4.43;1.50;;;;;;;;;;509984;29;1277;-84
2022/07/08 00:17:42;;;;;;;4.20;1.35;;;;;;;;;;509924;29;1526;-84
2022/07/08 00:17:58;;;;;;;6.65;1.67;;;;;;;;;;507878;29;1205;-84
2022/07/08 00:18:13;;;;;;;6.80;1.80;;;;;;;;;;508019;29;1317;-84
2022/07/08 00:18:29;;;;;;;6.50;1.73;;;;;;;;;;510093;29;1423;-84
2022/07/08 00:18:44;;;;;;;6.50;1.70;;;;;;;;;;512251;29;1287;-84
2022/07/08 00:19:00;;;;;;;7.35;1.70;;;;;;;;;;512263;29;828;-84
2022/07/08 00:19:19;;;;;;;8.10;1.60;;;;;;;;;;510059;29;1344;-84
2022/07/08 00:19:34;;;;;;;7.53;1.60;;;;;;;;;;508176;29;1252;-84
2022/07/08 00:19:50;;;;;;;9.80;1.77;;;;;;;;;;508278;29;1165;-84
2022/07/08 00:20:06;;;;;;;10.97;1.97;;;;;;;;;;508176;29;1078;-84
2022/07/08 00:20:22;;;;;;;7.85;1.90;;;;;;;;;;508095;29;1373;-84
2022/07/08 00:20:37;;;;;;;6.55;1.80;;;;;;;;;;507451;29;971;-84
2022/07/08 00:20:53;;;;;;;7.33;1.80;;;;;;;;;;506227;29;875;-84
2022/07/08 00:21:08;;;;;;;7.57;1.80;;;;;;;;;;508100;29;1349;-84
2022/07/08 00:21:24;;;;;;;7.63;1.70;;;;;;;;;;508318;29;908;-83
2022/07/08 00:21:43;;;;;;;7.60;1.67;;;;;;;;;;508691;29;1193;-84
2022/07/08 00:21:59;;;;;;;7.60;1.67;;;;;;;;;;510088;29;1320;-84
2022/07/08 00:22:14;;;;;;;7.37;1.80;;;;;;;;;;510960;29;1359;-84
2022/07/08 00:22:29;;;;;;;7.22;1.83;;;;;;;;;;512163;29;1268;-84
2022/07/08 00:22:45;;;;;;;6.73;1.70;;;;;;;;;;512060;29;1254;-84
2022/07/08 00:23:00;;;;;;;6.27;1.67;;;;;;;;;;512134;29;1166;-84
2022/07/08 00:23:16;;;;;;;6.13;1.63;;;;;;;;;;511976;29;1031;-84
2022/07/08 00:23:31;;;;;;;5.80;1.50;;;;;;;;;;511996;29;820;-84
2022/07/08 00:23:47;;;;;;;5.70;1.50;;;;;;;;;;511702;29;1263;-84
2022/07/08 00:24:02;;;;;;;6.07;1.70;;;;;;;;;;509789;29;912;-83
2022/07/08 00:24:18;;;;;;;6.65;1.80;;;;;;;;;;508106;29;809;-84
2022/07/08 00:24:33;;;;;;;7.13;1.70;;;;;;;;;;507934;29;1191;-84
2022/07/08 00:24:49;;;;;;;6.53;1.70;;;;;;;;;;508003;29;1273;-84
2022/07/08 00:25:05;;;;;;;6.27;1.73;;;;;;;;;;510053;29;1126;-84
2022/07/08 00:25:20;;;;;;;6.13;1.80;;;;;;;;;;510060;29;1354;-84
2022/07/08 00:25:36;;;;;;;7.00;1.80;;;;;;;;;;508189;29;1313;-84
2022/07/08 00:25:51;;;;;;;8.10;1.80;;;;;;;;;;508240;29;1278;-84
2022/07/08 00:26:07;;;;;;;6.80;1.75;;;;;;;;;;508347;29;813;-84
2022/07/08 00:26:22;;;;;;;5.97;1.70;;;;;;;;;;508226;29;959;-84
2022/07/08 00:26:38;;;;;;;6.83;1.53;;;;;;;;;;508476;29;1162;-84
2022/07/08 00:26:53;;;;;;;7.97;1.50;;;;;;;;;;510054;29;1222;-84
2022/07/08 00:27:08;;;;;;;7.65;1.60;;;;;;;;;;509892;29;1213;-84
2022/07/08 00:27:24;;;;;;;7.63;1.73;;;;;;;;;;510403;29;1296;-84
2022/07/08 00:27:39;;;;;;;8.13;1.63;;;;;;;;;;510128;29;1286;-84
2022/07/08 00:27:55;;;;;;;7.63;1.60;;;;;;;;;;508280;29;1328;-84
2022/07/08 00:28:10;;;;;;;7.43;1.63;;;;;;;;;;508252;29;1031;-84
2022/07/08 00:28:26;;;;;;;7.20;1.60;;;;;;;;;;507975;29;826;-84
2022/07/08 00:28:41;;;;;;;6.73;1.70;;;;;;;;;;507646;29;1420;-84
2022/07/08 00:28:57;;;;;;;8.17;1.80;;;;;;;;;;508005;29;1309;-84
2022/07/08 00:29:12;;;;;;;7.57;1.77;;;;;;;;;;508128;29;1302;-84
2022/07/08 00:29:28;;;;;;;7.60;1.73;;;;;;;;;;506229;29;1336;-84
2022/07/08 00:29:43;;;;;;;7.67;1.87;;;;;;;;;;508370;29;897;-84
2022/07/08 00:29:59;;;;;;;7.50;1.80;;;;;;;;;;511936;29;1326;-84
2022/07/08 00:30:14;;;;;;;8.00;1.67;;;;;;;;;;511903;29;1241;-84
2022/07/08 00:30:30;;;;;;;6.97;1.60;;;;;;;;;;511772;29;1198;-84
2022/07/08 00:30:45;;;;;;;7.07;1.83;;;;;;;;;;510066;29;1186;-84
2022/07/08 00:31:01;;;;;;;8.23;2.00;;;;;;;;;;510066;29;1170;-84
2022/07/08 00:31:16;;;;;;;6.30;1.63;;;;;;;;;;510246;29;905;-84
2022/07/08 00:31:32;;;;;;;6.07;1.60;;;;;;;;;;510129;29;1353;-84
2022/07/08 00:31:47;;;;;;;8.07;1.67;;;;;;;;;;510167;29;1051;-84
2022/07/08 00:32:03;;;;;;;7.55;1.50;;;;;;;;;;512215;28;1236;-84
2022/07/08 00:32:19;;;;;;;9.13;1.55;;;;;;;;;;509699;28;1236;-84
2022/07/08 00:32:37;;;;;;;10.53;1.70;;;;;;;;;;510187;29;1186;-84
2022/07/08 00:32:53;;;;;;;10.18;1.85;;;;;;;;;;510000;29;861;-84
2022/07/08 00:33:08;;;;;;;8.63;1.67;;;;;;;;;;510666;29;1383;-84
2022/07/08 00:33:23;;;;;;;8.17;1.73;;;;;;;;;;509271;29;845;-84
2022/07/08 00:33:39;;;;;;;9.30;1.83;;;;;;;;;;510180;29;1245;-84
2022/07/08 00:33:54;;;;;;;8.20;1.80;;;;;;;;;;509297;29;1273;-84
2022/07/08 00:34:10;;;;;;;7.53;1.80;;;;;;;;;;508879;29;1202;-84
2022/07/08 00:34:25;;;;;;;7.77;1.83;;;;;;;;;;510111;29;856;-84
2022/07/08 00:34:41;;;;;;;8.48;1.92;;;;;;;;;;510047;29;1919;-84
2022/07/08 00:34:56;;;;;;;8.97;1.90;;;;;;;;;;510193;29;892;-84
2022/07/08 00:35:12;;;;;;;7.63;1.70;;;;;;;;;;509872;29;1158;-84
2022/07/08 00:35:27;;;;;;;6.70;1.63;;;;;;;;;;507934;29;1257;-84
2022/07/08 00:35:43;;;;;;;7.83;1.70;;;;;;;;;;508246;29;1318;-84
2022/07/08 00:35:58;;;;;;;7.88;1.60;;;;;;;;;;509480;29;1334;-84
2022/07/08 00:36:13;;;;;;;7.63;1.70;;;;;;;;;;508002;29;1283;-84
2022/07/08 00:36:29;;;;;;;7.40;1.80;;;;;;;;;;508187;29;1071;-84
2022/07/08 00:36:44;;;;;;;7.97;1.63;;;;;;;;;;508314;29;1044;-84
2022/07/08 00:37:00;;;;;;;8.30;1.70;;;;;;;;;;508296;29;892;-84
2022/07/08 00:37:15;;;;;;;7.75;1.73;;;;;;;;;;508173;29;913;-84
2022/07/08 00:37:31;;;;;;;7.97;1.73;;;;;;;;;;508339;29;817;-84
2022/07/08 00:37:46;;;;;;;7.30;1.70;;;;;;;;;;506608;29;1264;-84
2022/07/08 00:38:01;;;;;;;7.40;1.60;;;;;;;;;;509746;29;896;-84
2022/07/08 00:38:17;;;;;;;8.13;1.63;;;;;;;;;;512150;28;1303;-83
2022/07/08 00:38:32;;;;;;;7.80;1.73;;;;;;;;;;510060;29;1289;-84
2022/07/08 00:38:48;;;;;;;6.90;1.70;;;;;;;;;;510113;29;1214;-84
2022/07/08 00:39:03;;;;;;;6.93;1.60;;;;;;;;;;510156;29;1270;-84
2022/07/08 00:39:19;;;;;;;7.10;1.83;;;;;;;;;;509923;29;1369;-84
2022/07/08 00:39:34;;;;;;;6.60;1.93;;;;;;;;;;508151;29;1283;-84
2022/07/08 00:39:50;;;;;;;5.67;1.67;;;;;;;;;;508430;29;806;-84
2022/07/08 00:40:06;;;;;;;6.45;1.70;;;;;;;;;;508073;29;1210;-84
2022/07/08 00:40:21;;;;;;;7.22;1.90;;;;;;;;;;512118;29;1356;-84
2022/07/08 00:40:37;;;;;;;7.40;1.70;;;;;;;;;;511798;29;1058;-84
2022/07/08 00:40:53;;;;;;;7.57;1.67;;;;;;;;;;508156;29;1308;-84
2022/07/08 00:41:08;;;;;;;6.73;1.80;;;;;;;;;;508241;29;857;-84
2022/07/08 00:41:24;;;;;;;6.07;1.70;;;;;;;;;;507545;29;1203;-84
2022/07/08 00:41:39;;;;;;;6.22;1.60;;;;;;;;;;505976;29;1181;-84
2022/07/08 00:41:55;;;;;;;8.93;1.80;;;;;;;;;;508388;29;1180;-84
2022/07/08 00:42:10;;;;;;;10.02;1.90;;;;;;;;;;508359;29;1299;-84
2022/07/08 00:42:25;;;;;;;8.00;1.83;;;;;;;;;;507903;29;1238;-84
2022/07/08 00:42:41;;;;;;;6.93;1.67;;;;;;;;;;507962;29;1219;-84
2022/07/08 00:42:56;;;;;;;7.27;1.60;;;;;;;;;;507891;29;1240;-84
2022/07/08 00:43:37;;;;;;;7.68;1.92;;;;;;;;;;506019;29;1328;-84
2022/07/08 00:43:53;;;;;;;7.22;1.60;;;;;;;;;;506151;29;826;-84
2022/07/08 00:44:09;;;;;;;6.60;1.60;;;;;;;;;;506717;29;1413;-84
2022/07/08 00:44:24;;;;;;;6.30;1.65;;;;;;;;;;508276;29;810;-84
2022/07/08 00:44:40;;;;;;;6.30;1.70;;;;;;;;;;509864;29;1287;-84
2022/07/08 00:44:55;;;;;;;7.32;1.60;;;;;;;;;;509981;29;1182;-84
2022/07/08 00:45:11;;;;;;;8.10;1.70;;;;;;;;;;510221;29;1182;-84
2022/07/08 00:45:27;;;;;;;7.47;1.77;;;;;;;;;;509969;29;904;-84
2022/07/08 00:45:42;;;;;;;8.52;1.80;;;;;;;;;;510580;29;1178;-84
2022/07/08 00:45:57;;;;;;;9.03;1.90;;;;;;;;;;511909;29;1202;-84
2022/07/08 00:46:14;;;;;;;7.40;1.80;;;;;;;;;;512014;29;893;-84
2022/07/08 00:46:30;;;;;;;8.23;1.77;;;;;;;;;;509664;29;1261;-84
2022/07/08 00:46:45;;;;;;;9.10;1.70;;;;;;;;;;508535;29;1071;-84
2022/07/08 00:47:01;;;;;;;7.70;1.60;;;;;;;;;;508144;29;1218;-84
2022/07/08 00:47:16;;;;;;;7.18;1.60;;;;;;;;;;506296;29;1357;-84
2022/07/08 00:47:32;;;;;;;6.60;1.60;;;;;;;;;;507711;29;1213;-84
2022/07/08 00:47:47;;;;;;;6.10;1.60;;;;;;;;;;503996;29;1289;-84
2022/07/08 00:48:02;;;;;;;7.00;1.70;;;;;;;;;;504057;29;1241;-84
2022/07/08 00:48:18;;;;;;;7.22;1.73;;;;;;;;;;504053;29;925;-84
2022/07/08 00:48:34;;;;;;;7.87;1.80;;;;;;;;;;504159;29;1151;-84
2022/07/08 00:48:49;;;;;;;8.77;1.77;;;;;;;;;;502399;29;1183;-84
2022/07/08 00:49:05;;;;;;;7.27;1.60;;;;;;;;;;504244;29;1164;-84
2022/07/08 00:49:20;;;;;;;7.65;1.75;;;;;;;;;;504000;29;1357;-84
2022/07/08 00:49:36;;;;;;;8.80;1.90;;;;;;;;;;506027;29;796;-84
2022/07/08 00:49:51;;;;;;;8.25;1.75;;;;;;;;;;506109;29;1198;-84
2022/07/08 00:50:09;;;;;;;6.83;1.67;;;;;;;;;;506124;29;798;-84
2022/07/08 00:50:24;;;;;;;7.93;1.90;;;;;;;;;;506270;29;1278;-84
2022/07/08 00:50:39;;;;;;;6.87;1.80;;;;;;;;;;506524;29;1256;-84
2022/07/08 00:50:58;;;;;;;6.47;1.60;;;;;;;;;;507783;29;1284;-84
2022/07/08 00:51:16;;;;;;;7.75;1.63;;;;;;;;;;505195;29;1036;-84
2022/07/08 00:51:33;;;;;;;7.75;1.60;;;;;;;;;;504090;29;1091;-84
2022/07/08 00:51:49;;;;;;;6.28;1.67;;;;;;;;;;503981;29;893;-84
2022/07/08 00:52:04;;;;;;;7.13;1.83;;;;;;;;;;503976;29;1258;-84
2022/07/08 00:52:20;;;;;;;6.90;1.70;;;;;;;;;;505413;29;912;-83
2022/07/08 00:52:37;;;;;;;7.23;1.70;;;;;;;;;;507251;29;1198;-84
2022/07/08 00:52:53;;;;;;;7.38;1.70;;;;;;;;;;509496;29;974;-84
2022/07/08 00:53:08;;;;;;;5.63;1.58;;;;;;;;;;507858;29;1550;-84
2022/07/08 00:53:24;;;;;;;6.37;1.50;;;;;;;;;;507901;29;1138;-84
2022/07/08 00:53:42;;;;;;;6.15;1.50;;;;;;;;;;507870;29;1395;-84
2022/07/08 00:53:57;;;;;;;6.03;1.60;;;;;;;;;;510668;29;1268;-84
2022/07/08 00:54:15;;;;;;;6.17;1.70;;;;;;;;;;511557;29;1251;-84
2022/07/08 00:54:31;;;;;;;6.10;1.60;;;;;;;;;;511511;29;1541;-84
2022/07/08 00:54:47;;;;;;;7.78;1.60;;;;;;;;;;511837;29;1993;-84
2022/07/08 00:55:04;;;;;;;6.57;1.52;;;;;;;;;;509877;29;1450;-84
2022/07/08 00:55:20;;;;;;;6.20;1.70;;;;;;;;;;509038;29;1304;-84
2022/07/08 00:55:35;;;;;;;6.63;1.77;;;;;;;;;;508156;29;1198;-84
2022/07/08 00:55:51;;;;;;;5.70;1.70;;;;;;;;;;510221;29;1190;-84
2022/07/08 00:56:09;;;;;;;6.07;1.60;;;;;;;;;;506369;29;1187;-84
2022/07/08 00:56:25;;;;;;;6.68;1.65;;;;;;;;;;506172;29;1266;-84
2022/07/08 00:56:41;;;;;;;5.63;1.60;;;;;;;;;;508125;29;1231;-84
2022/07/08 00:56:57;;;;;;;5.90;1.70;;;;;;;;;;508090;29;896;-84
2022/07/08 00:57:14;;;;;;;6.55;1.70;;;;;;;;;;509985;29;1478;-84
2022/07/08 00:57:30;;;;;;;7.95;1.75;;;;;;;;;;508077;29;1374;-84
2022/07/08 00:57:45;;;;;;;7.70;1.75;;;;;;;;;;508094;29;1369;-84
2022/07/08 00:58:01;;;;;;;5.20;1.60;;;;;;;;;;506202;29;1407;-84
2022/07/08 00:58:17;;;;;;;4.20;1.48;;;;;;;;;;506209;29;1609;-84
2022/07/08 00:58:33;;;;;;;5.97;1.60;;;;;;;;;;507484;29;1388;-84
2022/07/08 00:58:49;;;;;;;6.20;1.58;;;;;;;;;;505985;29;1337;-84
2022/07/08 00:59:05;;;;;;;5.18;1.55;;;;;;;;;;505412;29;917;-84
2022/07/08 00:59:21;;;;;;;5.95;1.70;;;;;;;;;;503212;29;1278;-84
2022/07/08 00:59:37;;;;;;;7.05;1.65;;;;;;;;;;504803;29;933;-84
2022/07/08 00:59:54;;;;;;;8.18;1.75;;;;;;;;;;508013;29;1278;-84
2022/07/08 01:00:09;;;;;;;6.43;1.63;;;;;;;;;;509366;29;972;-84
2022/07/08 01:00:25;;;;;;;6.33;1.60;;;;;;;;;;509835;29;1060;-84
2022/07/08 01:00:40;;;;;;;7.55;1.70;;;;;;;;;;510719;29;909;-84
2022/07/08 01:00:56;;;;;;;9.27;1.80;;;;;;;;;;508776;29;1182;-84
2022/07/08 01:01:11;;;;;;;9.18;1.90;;;;;;;;;;508123;29;1004;-84
2022/07/08 01:01:27;;;;;;;8.30;1.73;;;;;;;;;;507913;29;1248;-84
2022/07/08 01:01:42;;;;;;;8.07;1.73;;;;;;;;;;508005;29;1262;-84
2022/07/08 01:01:58;;;;;;;6.93;1.70;;;;;;;;;;507920;29;1167;-84
2022/07/08 01:02:14;;;;;;;6.57;1.60;;;;;;;;;;507867;29;1270;-84
2022/07/08 01:02:29;;;;;;;5.80;1.60;;;;;;;;;;508053;29;1175;-84
2022/07/08 01:02:45;;;;;;;6.28;1.70;;;;;;;;;;507883;29;1265;-84
2022/07/08 01:03:01;;;;;;;6.25;1.60;;;;;;;;;;510750;29;1273;-84
2022/07/08 01:03:17;;;;;;;6.28;1.55;;;;;;;;;;511114;29;864;-83
2022/07/08 01:03:33;;;;;;;7.32;1.70;;;;;;;;;;511242;29;1023;-84
2022/07/08 01:03:48;;;;;;;7.55;1.70;;;;;;;;;;510125;29;1034;-84
2022/07/08 01:04:04;;;;;;;7.63;1.60;;;;;;;;;;508587;29;1228;-84
2022/07/08 01:04:20;;;;;;;7.88;1.60;;;;;;;;;;509886;29;1167;-84
2022/07/08 01:04:35;;;;;;;7.40;1.80;;;;;;;;;;508613;29;1178;-84
2022/07/08 01:04:51;;;;;;;8.17;1.80;;;;;;;;;;509473;29;1371;-84
2022/07/08 01:05:08;;;;;;;8.38;1.95;;;;;;;;;;507947;29;900;-84
2022/07/08 01:05:24;;;;;;;6.95;1.75;;;;;;;;;;509985;29;1293;-84
2022/07/08 01:05:39;;;;;;;7.13;1.53;;;;;;;;;;510003;29;1282;-84
2022/07/08 01:05:54;;;;;;;7.60;1.58;;;;;;;;;;508349;29;1293;-84
2022/07/08 01:06:10;;;;;;;7.23;1.60;;;;;;;;;;507876;29;1039;-84
2022/07/08 01:06:25;;;;;;;7.95;1.80;;;;;;;;;;508337;29;1255;-84
2022/07/08 01:06:41;;;;;;;7.63;1.80;;;;;;;;;;510903;29;1251;-84
2022/07/08 01:06:57;;;;;;;7.00;1.75;;;;;;;;;;509861;29;1347;-84
2022/07/08 01:07:12;;;;;;;6.85;1.75;;;;;;;;;;509975;29;1236;-84
2022/07/08 01:07:28;;;;;;;6.43;1.63;;;;;;;;;;508027;29;1232;-84
2022/07/08 01:07:43;;;;;;;5.85;1.60;;;;;;;;;;508065;29;1306;-84
2022/07/08 01:07:59;;;;;;;6.13;1.53;;;;;;;;;;510124;29;1217;-84
2022/07/08 01:08:14;;;;;;;5.90;1.50;;;;;;;;;;508132;29;1261;-84
2022/07/08 01:08:30;;;;;;;5.15;1.50;;;;;;;;;;510175;29;1202;-84
2022/07/08 01:08:45;;;;;;;5.53;1.60;;;;;;;;;;508036;29;1183;-84
2022/07/08 01:09:01;;;;;;;6.70;1.70;;;;;;;;;;507977;29;889;-84
2022/07/08 01:09:17;;;;;;;7.60;1.60;;;;;;;;;;506142;29;1423;-84
2022/07/08 01:09:32;;;;;;;7.13;1.60;;;;;;;;;;506159;29;1181;-84
2022/07/08 01:09:48;;;;;;;7.10;1.60;;;;;;;;;;506149;29;885;-84
2022/07/08 01:10:04;;;;;;;7.80;1.80;;;;;;;;;;505917;29;1174;-84
2022/07/08 01:10:19;;;;;;;6.85;1.77;;;;;;;;;;505986;29;1292;-84
2022/07/08 01:10:36;;;;;;;6.60;1.63;;;;;;;;;;505922;29;1538;-84
2022/07/08 01:10:52;;;;;;;6.65;1.65;;;;;;;;;;506096;29;885;-84
2022/07/08 01:11:08;;;;;;;6.13;1.70;;;;;;;;;;506318;29;1111;-84
2022/07/08 01:11:25;;;;;;;7.63;1.75;;;;;;;;;;508065;29;1323;-84
2022/07/08 01:11:46;;;;;;;6.72;1.70;;;;;;;;;;506355;29;1281;-84
2022/07/08 01:12:02;;;;;;;6.80;1.70;;;;;;;;;;504370;29;1455;-84
2022/07/08 01:12:18;;;;;;;6.90;1.65;;;;;;;;;;506086;29;1247;-84
2022/07/08 01:12:34;;;;;;;5.33;1.57;;;;;;;;;;509545;29;1319;-84
2022/07/08 01:12:49;;;;;;;5.57;1.50;;;;;;;;;;510043;29;985;-84
2022/07/08 01:13:05;;;;;;;5.77;1.60;;;;;;;;;;510040;29;1203;-84
2022/07/08 01:13:22;;;;;;;7.60;1.70;;;;;;;;;;508186;29;1253;-84
2022/07/08 01:13:38;;;;;;;7.85;1.63;;;;;;;;;;512046;29;1311;-84
2022/07/08 01:13:54;;;;;;;6.35;1.50;;;;;;;;;;510188;29;1358;-84
2022/07/08 01:14:09;;;;;;;6.10;1.52;;;;;;;;;;506332;29;1199;-84
2022/07/08 01:14:25;;;;;;;7.30;1.73;;;;;;;;;;506160;29;1258;-84
2022/07/08 01:14:41;;;;;;;7.50;1.75;;;;;;;;;;506258;29;1895;-84
2022/07/08 01:14:56;;;;;;;6.70;1.60;;;;;;;;;;506249;29;1194;-84
2022/07/08 01:15:12;;;;;;;8.40;1.70;;;;;;;;;;508151;29;1226;-84
2022/07/08 01:15:27;;;;;;;7.40;1.60;;;;;;;;;;507760;29;778;-84
2022/07/08 01:15:44;;;;;;;5.95;1.58;;;;;;;;;;506183;29;1020;-84
2022/07/08 01:16:00;;;;;;;6.13;1.60;;;;;;;;;;508094;29;1354;-84
2022/07/08 01:16:15;;;;;;;8.27;1.73;;;;;;;;;;505869;29;1222;-84
2022/07/08 01:16:30;;;;;;;9.18;1.80;;;;;;;;;;505981;29;1314;-84
2022/07/08 01:16:46;;;;;;;6.50;1.67;;;;;;;;;;506359;29;1289;-84
2022/07/08 01:17:01;;;;;;;5.90;1.77;;;;;;;;;;507468;29;1059;-84
2022/07/08 01:17:16;;;;;;;4.80;1.45;;;;;;;;;;506049;29;1148;-84
2022/07/08 01:17:43;;;;;;;5.20;1.40;;;;;;;;;;504031;29;1296;-84
2022/07/08 01:17:58;;;;;;;6.10;1.48;;;;;;;;;;504039;29;921;-84
2022/07/08 01:18:27;;;;;;;6.05;1.45;;;;;;;;;;507273;29;992;-84
2022/07/08 01:18:43;;;;;;;6.85;1.60;;;;;;;;;;505942;29;1581;-84
2022/07/08 01:18:58;;;;;;;7.33;1.67;;;;;;;;;;507800;29;1163;-84
2022/07/08 01:19:14;;;;;;;8.10;1.83;;;;;;;;;;507814;29;1351;-84
2022/07/08 01:19:32;;;;;;;6.47;1.70;;;;;;;;;;509586;29;1000;-84
2022/07/08 01:19:47;;;;;;;7.45;1.50;;;;;;;;;;510330;29;1397;-84
2022/07/08 01:20:03;;;;;;;7.97;1.60;;;;;;;;;;512104;29;1153;-84
2022/07/08 01:20:19;;;;;;;6.70;1.60;;;;;;;;;;509971;29;1175;-84
2022/07/08 01:20:34;;;;;;;5.33;1.40;;;;;;;;;;508905;29;1453;-84
2022/07/08 01:20:50;;;;;;;5.47;1.50;;;;;;;;;;509426;28;1214;-84
2022/07/08 01:21:06;;;;;;;7.18;1.80;;;;;;;;;;507382;29;869;-84
2022/07/08 01:21:21;;;;;;;7.63;1.80;;;;;;;;;;507294;29;1219;-84
2022/07/08 01:21:37;;;;;;;7.05;1.65;;;;;;;;;;508053;29;1224;-84
2022/07/08 01:21:52;;;;;;;8.00;1.80;;;;;;;;;;506115;29;1206;-84
2022/07/08 01:22:07;;;;;;;8.93;1.85;;;;;;;;;;506759;29;881;-84
2022/07/08 01:22:23;;;;;;;7.00;1.80;;;;;;;;;;508189;29;1198;-84
2022/07/08 01:22:39;;;;;;;7.17;1.80;;;;;;;;;;506150;29;1345;-84
2022/07/08 01:22:54;;;;;;;7.32;1.70;;;;;;;;;;506165;29;1322;-84
2022/07/08 01:23:10;;;;;;;6.65;1.70;;;;;;;;;;507660;29;872;-84
2022/07/08 01:23:26;;;;;;;6.63;1.60;;;;;;;;;;505907;29;893;-84
2022/07/08 01:23:41;;;;;;;6.43;1.75;;;;;;;;;;504735;29;964;-84
2022/07/08 01:23:56;;;;;;;7.55;1.88;;;;;;;;;;507773;29;1175;-84
2022/07/08 01:24:12;;;;;;;7.67;1.60;;;;;;;;;;508498;29;810;-84
2022/07/08 01:24:27;;;;;;;6.63;1.50;;;;;;;;;;508216;29;1147;-84
2022/07/08 01:24:43;;;;;;;6.05;1.50;;;;;;;;;;508654;29;897;-84
2022/07/08 01:24:58;;;;;;;6.37;1.70;;;;;;;;;;505912;29;1368;-84
2022/07/08 01:25:14;;;;;;;7.82;1.75;;;;;;;;;;506032;29;1004;-84
2022/07/08 01:25:30;;;;;;;7.87;1.63;;;;;;;;;;508547;29;1279;-84
2022/07/08 01:25:46;;;;;;;9.07;1.77;;;;;;;;;;509783;29;1214;-84
2022/07/08 01:26:09;;;;;;;9.27;1.77;;;;;;;;;;509753;29;1394;-84
2022/07/08 01:26:25;;;;;;;7.95;1.80;;;;;;;;;;510949;29;861;-84
2022/07/08 01:26:40;;;;;;;8.38;1.80;;;;;;;;;;509929;29;1355;-84
2022/07/08 01:26:56;;;;;;;7.82;1.80;;;;;;;;;;508107;29;1232;-84
2022/07/08 01:27:11;;;;;;;7.00;1.80;;;;;;;;;;506684;29;992;-84
2022/07/08 01:27:27;;;;;;;7.47;1.70;;;;;;;;;;506289;29;1008;-84
2022/07/08 01:27:43;;;;;;;7.90;1.77;;;;;;;;;;506600;29;1198;-84
2022/07/08 01:27:58;;;;;;;7.53;1.80;;;;;;;;;;508639;29;1336;-84
2022/07/08 01:28:14;;;;;;;6.75;1.73;;;;;;;;;;509938;29;1432;-84
2022/07/08 01:28:30;;;;;;;7.95;1.95;;;;;;;;;;509992;29;892;-84
2022/07/08 01:28:45;;;;;;;6.93;1.73;;;;;;;;;;509073;29;1153;-83
2022/07/08 01:29:00;;;;;;;5.73;1.50;;;;;;;;;;508084;29;837;-84
2022/07/08 01:29:16;;;;;;;6.88;1.73;;;;;;;;;;507978;29;1329;-84
2022/07/08 01:29:33;;;;;;;7.77;1.70;;;;;;;;;;508243;29;1000;-84
2022/07/08 01:29:48;;;;;;;6.57;1.60;;;;;;;;;;509743;29;861;-84
2022/07/08 01:30:04;;;;;;;6.70;1.60;;;;;;;;;;508277;29;1060;-84
2022/07/08 01:30:20;;;;;;;6.50;1.77;;;;;;;;;;506025;29;1256;-84
2022/07/08 01:30:35;;;;;;;6.28;1.80;;;;;;;;;;506669;29;1219;-83
2022/07/08 01:30:51;;;;;;;7.57;1.90;;;;;;;;;;507841;29;1174;-84
2022/07/08 01:31:06;;;;;;;6.50;1.70;;;;;;;;;;506575;29;1325;-84
2022/07/08 01:31:22;;;;;;;5.47;1.70;;;;;;;;;;506022;29;1506;-84
2022/07/08 01:31:37;;;;;;;6.33;1.80;;;;;;;;;;504291;29;1159;-84
2022/07/08 01:31:53;;;;;;;5.80;1.60;;;;;;;;;;504271;29;925;-85
2022/07/08 01:32:08;;;;;;;5.87;1.60;;;;;;;;;;505704;29;1278;-84
2022/07/08 01:32:34;;;;;;;6.88;1.70;;;;;;;;;;506053;29;1008;-84
2022/07/08 01:32:49;;;;;;;7.40;1.80;;;;;;;;;;503474;29;1374;-84
2022/07/08 01:33:05;;;;;;;6.80;1.70;;;;;;;;;;503768;29;913;-84
2022/07/08 01:33:20;;;;;;;6.20;1.60;;;;;;;;;;505777;29;900;-84
2022/07/08 01:33:36;;;;;;;7.03;1.60;;;;;;;;;;506199;29;837;-84
2022/07/08 01:33:51;;;;;;;6.83;1.60;;;;;;;;;;506050;29;1211;-84
2022/07/08 01:34:07;;;;;;;7.68;1.88;;;;;;;;;;507800;29;1179;-84
2022/07/08 01:34:22;;;;;;;8.63;1.87;;;;;;;;;;508151;29;1276;-84
2022/07/08 01:34:37;;;;;;;6.33;1.60;;;;;;;;;;508196;29;1039;-84
2022/07/08 01:34:53;;;;;;;6.43;1.60;;;;;;;;;;508034;29;1911;-84
2022/07/08 01:35:09;;;;;;;7.80;1.80;;;;;;;;;;508164;29;1226;-84
2022/07/08 01:35:24;;;;;;;7.13;1.77;;;;;;;;;;510091;29;1239;-84
2022/07/08 01:35:40;;;;;;;7.10;1.70;;;;;;;;;;510082;29;1212;-84
2022/07/08 01:35:55;;;;;;;7.17;1.70;;;;;;;;;;510072;29;1196;-84
2022/07/08 01:36:11;;;;;;;6.40;1.70;;;;;;;;;;510278;29;865;-84
2022/07/08 01:36:26;;;;;;;4.83;1.60;;;;;;;;;;511955;29;1292;-84
2022/07/08 01:36:42;;;;;;;4.82;1.42;;;;;;;;;;507977;29;1174;-83
2022/07/08 01:36:57;;;;;;;5.93;1.57;;;;;;;;;;507857;29;1190;-83
2022/07/08 01:37:12;;;;;;;6.93;1.60;;;;;;;;;;507595;29;833;-84
2022/07/08 01:37:28;;;;;;;9.65;1.70;;;;;;;;;;506162;29;936;-84
2022/07/08 01:37:44;;;;;;;8.70;1.70;;;;;;;;;;504029;29;1187;-83
2022/07/08 01:38:00;;;;;;;5.93;1.50;;;;;;;;;;506201;29;1253;-83
2022/07/08 01:38:15;;;;;;;6.50;1.70;;;;;;;;;;506150;29;1321;-83
2022/07/08 01:38:31;;;;;;;6.47;1.70;;;;;;;;;;506489;29;1090;-83